Time;durP1;ratioP1;P1;durP2;ratioP2;P2;SDS_P1;SDS_P2;PMS_P1;PMS_P2;Temp;Humidity;BMP_temperature;BMP_pressure;BME280_temperature;BME280_humidity;BME280_pressure;Samples;Min_cycle;Max_cycle;Signal;HPM_P1;HPM_P2
2022/06/04 00:00:06;;;;;;;9.30;3.50;;;19.60;99.90;;;;;;5036932;28;20056;-83
2022/06/04 00:02:32;;;;;;;5.00;3.20;;;19.60;99.90;;;;;;5006981;28;20373;-84
2022/06/04 00:05:17;;;;;;;4.22;3.22;;;19.60;99.90;;;;;;5054758;28;20027;-83
2022/06/04 00:07:43;;;;;;;3.58;3.10;;;19.60;99.90;;;;;;5036572;28;20028;-84
2022/06/04 00:15:45;;;;;;;6.25;3.13;;;19.60;99.90;;;;;;5054562;28;20056;-84
2022/06/04 00:18:10;;;;;;;6.70;3.35;;;19.60;99.90;;;;;;5036341;28;20400;-83
2022/06/04 00:20:36;;;;;;;4.40;3.20;;;19.60;99.90;;;;;;5036128;28;20032;-83
2022/06/04 00:23:05;;;;;;;3.53;2.80;;;19.60;99.90;;;;;;5053376;28;20082;-83
2022/06/04 00:25:31;;;;;;;4.10;3.00;;;19.60;99.90;;;;;;5036150;28;20541;-84
2022/06/04 00:28:02;;;;;;;3.88;2.80;;;19.60;99.90;;;;;;5036295;28;20021;-84
2022/06/04 00:30:27;;;;;;;3.50;2.78;;;19.60;99.90;;;;;;5036118;28;20418;-83
2022/06/04 00:32:53;;;;;;;5.43;3.08;;;19.50;99.90;;;;;;5036110;28;20025;-83
2022/06/04 00:35:19;;;;;;;4.03;2.97;;;19.50;99.90;;;;;;5036034;28;20365;-83
2022/06/04 00:37:45;;;;;;;4.15;2.92;;;19.50;99.90;;;;;;5036096;28;20070;-83
2022/06/04 00:40:22;;;;;;;4.88;2.90;;;19.50;99.90;;;;;;5053806;28;20024;-84
2022/06/04 00:42:48;;;;;;;3.60;2.97;;;19.50;99.90;;;;;;5035900;28;20025;-84
2022/06/04 00:45:32;;;;;;;5.90;3.00;;;19.50;99.90;;;;;;5036141;28;20036;-83
2022/06/04 00:47:59;;;;;;;3.73;2.93;;;19.50;99.90;;;;;;5035795;28;20025;-83
2022/06/04 00:50:28;;;;;;;5.20;3.00;;;19.50;99.90;;;;;;5053860;28;20365;-83
2022/06/04 00:52:57;;;;;;;5.20;2.85;;;19.50;99.90;;;;;;5053494;28;20032;-84
2022/06/04 00:55:24;;;;;;;4.53;3.10;;;19.50;99.90;;;;;;5019485;28;20044;-84
2022/06/04 00:57:55;;;;;;;5.30;3.03;;;19.50;99.90;;;;;;5035678;28;20480;-84
2022/06/04 01:00:33;;;;;;;5.32;2.88;;;19.50;99.90;;;;;;5053304;28;20020;-85
2022/06/04 01:03:11;;;;;;;5.28;3.10;;;19.40;99.90;;;;;;5036248;28;20025;-83
2022/06/04 01:06:07;;;;;;;4.13;2.75;;;19.50;99.90;;;;;;5035626;28;20451;-84
2022/06/04 01:08:51;;;;;;;5.18;3.40;;;19.40;99.90;;;;;;5035585;28;20021;-84
2022/06/04 01:11:22;;;;;;;3.88;3.22;;;19.40;99.90;;;;;;5035475;28;20021;-84
2022/06/04 01:14:12;;;;;;;5.85;2.67;;;19.40;99.90;;;;;;5035494;28;20036;-84
2022/06/04 01:16:55;;;;;;;5.65;3.35;;;19.40;99.90;;;;;;5052944;28;20029;-83
2022/06/04 01:19:47;;;;;;;5.45;3.63;;;19.40;99.90;;;;;;5035344;28;20056;-84
2022/06/04 01:22:16;;;;;;;6.35;3.33;;;19.40;99.90;;;;;;5035963;28;20401;-84
2022/06/04 01:25:19;;;;;;;5.10;3.25;;;19.40;99.90;;;;;;5015462;28;20028;-84
2022/06/04 01:27:45;;;;;;;5.30;3.70;;;19.40;99.90;;;;;;5033794;28;20079;-84
2022/06/04 01:30:19;;;;;;;5.78;3.20;;;19.40;99.90;;;;;;5033151;28;20021;-84
2022/06/04 01:32:56;;;;;;;6.22;3.45;;;19.40;99.90;;;;;;5015186;28;20025;-84
2022/06/04 01:35:46;;;;;;;5.18;3.15;;;19.30;99.90;;;;;;5015481;28;20033;-84
2022/06/04 01:38:29;;;;;;;4.93;3.72;;;19.30;99.90;;;;;;5033179;28;20358;-84
2022/06/04 01:41:16;;;;;;;5.93;3.40;;;19.30;99.90;;;;;;5015276;28;20044;-84
2022/06/04 01:43:48;;;;;;;5.25;3.10;;;19.30;99.90;;;;;;5015276;28;20036;-84
2022/06/04 01:46:25;;;;;;;5.55;3.40;;;19.30;99.90;;;;;;5015817;28;20388;-84
2022/06/04 01:48:56;;;;;;;5.22;2.97;;;19.30;99.90;;;;;;5015219;28;20025;-84
2022/06/04 01:51:25;;;;;;;8.77;2.90;;;19.30;99.90;;;;;;5033073;28;20018;-84
2022/06/04 01:54:01;;;;;;;4.55;2.70;;;19.30;99.90;;;;;;5032837;28;20053;-84
2022/06/04 01:56:31;;;;;;;4.57;3.10;;;19.30;99.90;;;;;;5032194;28;20042;-84
2022/06/04 01:59:24;;;;;;;4.70;3.40;;;19.30;99.90;;;;;;5015032;28;20116;-84
2022/06/04 02:01:52;;;;;;;5.22;3.08;;;19.30;99.90;;;;;;5015229;28;20500;-84
2022/06/04 02:04:25;;;;;;;3.85;3.17;;;19.30;99.90;;;;;;5015116;28;20399;-84
2022/06/04 02:09:45;;;;;;;4.57;3.25;;;19.30;99.90;;;;;;5033290;28;20052;-84
2022/06/04 02:12:13;;;;;;;6.03;3.00;;;19.30;99.90;;;;;;5014996;28;20549;-83
2022/06/04 02:14:59;;;;;;;5.22;3.00;;;19.30;99.90;;;;;;5032739;28;20032;-84
2022/06/04 02:17:28;;;;;;;7.95;3.20;;;19.20;99.90;;;;;;5014839;28;20488;-84
2022/06/04 02:19:59;;;;;;;6.32;3.47;;;19.20;99.90;;;;;;5032595;28;20373;-83
2022/06/04 02:22:25;;;;;;;4.93;3.20;;;19.20;99.90;;;;;;5033237;28;20049;-83
2022/06/04 02:24:51;;;;;;;4.90;3.13;;;19.20;99.90;;;;;;5035541;28;20356;-84
2022/06/04 02:27:16;;;;;;;5.55;3.20;;;19.20;99.90;;;;;;5034659;28;20479;-84
2022/06/04 02:29:43;;;;;;;6.40;3.13;;;19.20;99.90;;;;;;5034657;28;20028;-84
2022/06/04 02:32:19;;;;;;;5.80;3.33;;;19.20;99.90;;;;;;5034581;28;20056;-84
2022/06/04 02:34:50;;;;;;;5.22;3.22;;;19.20;99.90;;;;;;5052754;28;20032;-84
2022/06/04 02:37:34;;;;;;;6.32;3.28;;;19.20;99.90;;;;;;5052380;28;20029;-84
2022/06/04 02:40:23;;;;;;;6.32;3.63;;;19.20;99.90;;;;;;5034502;28;20060;-84
2022/06/04 02:42:55;;;;;;;5.72;3.65;;;19.10;99.90;;;;;;5034454;28;20029;-83
2022/06/04 02:45:27;;;;;;;5.35;3.60;;;19.20;99.90;;;;;;5053530;28;20025;-84
2022/06/04 02:48:06;;;;;;;5.13;3.60;;;19.20;99.90;;;;;;5055878;28;20021;-84
2022/06/04 02:50:38;;;;;;;4.05;3.13;;;19.10;99.90;;;;;;5055817;28;20052;-83
2022/06/04 02:53:10;;;;;;;4.78;3.83;;;19.10;99.90;;;;;;5037914;28;20029;-84
2022/06/04 02:55:44;;;;;;;4.70;3.00;;;19.10;99.90;;;;;;5037866;28;20029;-84
2022/06/04 02:58:14;;;;;;;5.07;3.43;;;19.10;99.90;;;;;;5037768;28;20487;-84
2022/06/04 03:00:41;;;;;;;8.18;3.40;;;19.10;99.90;;;;;;5037749;28;20765;-84
2022/06/04 03:03:23;;;;;;;7.25;3.03;;;19.10;99.90;;;;;;5037622;28;20025;-84
2022/06/04 03:05:55;;;;;;;5.47;3.35;;;19.00;99.90;;;;;;5037688;28;20049;-84
2022/06/04 03:08:30;;;;;;;6.40;3.25;;;19.10;99.90;;;;;;5056073;28;20047;-84
2022/06/04 03:10:56;;;;;;;6.30;3.22;;;19.10;99.90;;;;;;5037615;28;20480;-84
2022/06/04 03:13:23;;;;;;;5.80;3.20;;;19.10;99.90;;;;;;5055616;28;20435;-84
2022/06/04 03:15:49;;;;;;;3.70;3.35;;;19.10;99.90;;;;;;5055697;28;20025;-84
2022/06/04 03:18:15;;;;;;;5.07;3.00;;;19.10;99.90;;;;;;5037417;28;20029;-84
2022/06/04 03:20:41;;;;;;;3.55;3.00;;;19.10;99.90;;;;;;5052903;28;20048;-84
2022/06/04 03:23:07;;;;;;;3.80;3.00;;;19.00;99.90;;;;;;5017460;28;20033;-84
2022/06/04 03:25:35;;;;;;;5.95;3.13;;;19.10;99.90;;;;;;5018287;28;20533;-84
2022/06/04 03:28:01;;;;;;;4.20;2.90;;;19.00;99.90;;;;;;5035165;28;20075;-84
2022/06/04 03:30:36;;;;;;;7.10;3.17;;;19.00;99.90;;;;;;5017387;28;20021;-84
2022/06/04 03:33:03;;;;;;;6.97;3.20;;;19.00;99.90;;;;;;5017616;28;20025;-84
2022/06/04 03:35:29;;;;;;;5.32;3.35;;;19.00;99.90;;;;;;5017263;28;20032;-84
2022/06/04 03:37:54;;;;;;;4.97;2.95;;;19.00;99.90;;;;;;5017215;28;20021;-84
2022/06/04 03:40:20;;;;;;;7.32;3.13;;;19.00;99.90;;;;;;5017206;28;20040;-83
2022/06/04 03:42:46;;;;;;;3.92;3.17;;;19.00;99.90;;;;;;5034840;28;20029;-84
2022/06/04 03:45:13;;;;;;;8.10;3.13;;;19.00;99.90;;;;;;5017057;28;20061;-84
2022/06/04 03:47:40;;;;;;;7.13;3.58;;;19.00;99.90;;;;;;5017198;28;20022;-84
2022/06/04 03:50:12;;;;;;;4.50;3.33;;;19.00;99.90;;;;;;5016942;28;20496;-83
2022/06/04 03:52:38;;;;;;;4.50;2.92;;;19.00;99.90;;;;;;5001466;28;20138;-85
2022/06/04 03:55:05;;;;;;;4.18;3.10;;;19.00;99.90;;;;;;5016957;28;20388;-84
2022/06/04 03:57:50;;;;;;;5.65;3.08;;;19.00;99.90;;;;;;5016730;28;20056;-84
2022/06/04 04:00:27;;;;;;;3.65;2.90;;;19.00;99.90;;;;;;5034810;28;20036;-84
2022/06/04 04:03:01;;;;;;;3.30;3.00;;;19.00;99.90;;;;;;5016764;28;20389;-84
2022/06/04 04:05:31;;;;;;;5.15;2.97;;;19.00;99.90;;;;;;5016733;28;20051;-84
2022/06/04 04:08:08;;;;;;;4.30;2.80;;;19.00;99.90;;;;;;5016593;28;20495;-84
2022/06/04 04:10:34;;;;;;;3.78;3.00;;;19.00;99.90;;;;;;5034698;28;20033;-84
2022/06/04 04:13:00;;;;;;;5.95;2.92;;;19.00;99.90;;;;;;5033425;28;20045;-84
2022/06/04 04:15:26;;;;;;;4.22;2.95;;;19.00;99.90;;;;;;5034252;28;20052;-84
2022/06/04 04:17:52;;;;;;;4.40;3.05;;;19.00;99.90;;;;;;5016847;28;20041;-84
2022/06/04 04:20:22;;;;;;;3.90;3.05;;;19.00;99.90;;;;;;5034217;28;20022;-83
2022/06/04 04:22:49;;;;;;;7.05;2.80;;;19.00;99.90;;;;;;5035709;28;20053;-84
2022/06/04 04:25:17;;;;;;;3.42;3.00;;;19.00;99.90;;;;;;5036456;28;20032;-83
2022/06/04 04:27:44;;;;;;;4.60;2.83;;;19.00;99.90;;;;;;5019792;28;20095;-84
2022/06/04 04:30:13;;;;;;;5.40;3.30;;;19.00;99.90;;;;;;5036146;28;20021;-84
2022/06/04 04:32:38;;;;;;;3.17;2.78;;;19.00;99.90;;;;;;5036059;28;20032;-84
2022/06/04 04:35:08;;;;;;;4.43;3.13;;;19.00;99.90;;;;;;5053883;28;20021;-84
2022/06/04 04:37:34;;;;;;;7.15;3.28;;;19.00;99.90;;;;;;5035914;28;20052;-84
2022/06/04 04:40:00;;;;;;;3.55;3.00;;;19.00;99.90;;;;;;5036051;28;20036;-83
2022/06/04 04:42:25;;;;;;;4.47;2.97;;;19.00;99.90;;;;;;5035813;28;20031;-84
2022/06/04 04:45:00;;;;;;;3.10;2.80;;;19.00;99.90;;;;;;5053705;28;20096;-84
2022/06/04 04:47:26;;;;;;;7.20;2.85;;;19.00;99.90;;;;;;5035791;28;20502;-84
2022/06/04 04:49:51;;;;;;;3.50;2.83;;;19.00;99.90;;;;;;5053640;28;20021;-84
2022/06/04 04:52:17;;;;;;;3.33;2.90;;;19.00;99.90;;;;;;5035761;28;20112;-84
2022/06/04 04:54:43;;;;;;;4.05;2.90;;;19.00;99.90;;;;;;5053822;28;20021;-83
2022/06/04 04:57:10;;;;;;;2.92;2.45;;;19.00;99.90;;;;;;5036027;28;20428;-83
2022/06/04 04:59:36;;;;;;;4.65;2.75;;;19.00;99.90;;;;;;5035541;28;20040;-83
2022/06/04 05:02:02;;;;;;;2.90;2.50;;;19.00;99.90;;;;;;5035550;28;20476;-83
2022/06/04 05:04:28;;;;;;;6.25;2.90;;;19.00;99.90;;;;;;5053399;28;20025;-83
2022/06/04 05:06:54;;;;;;;4.53;2.95;;;19.00;99.90;;;;;;5036117;28;20096;-83
2022/06/04 05:09:20;;;;;;;3.17;2.42;;;19.10;99.90;;;;;;5034961;28;20024;-83
2022/06/04 05:11:45;;;;;;;3.88;2.67;;;19.00;99.90;;;;;;5035439;28;20492;-83
2022/06/04 05:14:11;;;;;;;5.35;2.90;;;19.10;99.90;;;;;;5035457;28;20070;-83
2022/06/04 05:16:47;;;;;;;5.75;2.70;;;19.10;99.90;;;;;;5035303;28;20504;-83
2022/06/04 05:19:13;;;;;;;4.47;2.60;;;19.00;99.90;;;;;;5035280;28;20396;-83
2022/06/04 05:21:42;;;;;;;3.47;2.83;;;19.00;99.90;;;;;;5043076;28;20045;-83
2022/06/04 05:24:18;;;;;;;3.30;2.97;;;19.00;99.90;;;;;;5015521;28;20104;-83
2022/06/04 05:26:43;;;;;;;3.40;2.63;;;19.10;99.90;;;;;;5015549;28;20549;-83
2022/06/04 05:29:10;;;;;;;4.05;2.60;;;19.00;99.90;;;;;;5033163;28;20097;-83
2022/06/04 05:31:36;;;;;;;3.05;2.40;;;19.10;99.90;;;;;;5015438;28;20030;-83
2022/06/04 05:34:02;;;;;;;3.50;2.65;;;19.10;99.90;;;;;;5015444;28;20036;-83
2022/06/04 05:36:31;;;;;;;4.43;2.60;;;19.00;99.90;;;;;;5015503;28;20370;-83
2022/06/04 05:38:56;;;;;;;2.80;2.45;;;19.00;99.90;;;;;;5015379;28;20032;-83
2022/06/04 05:41:22;;;;;;;2.78;2.35;;;19.10;99.90;;;;;;5015302;28;20116;-83
2022/06/04 05:43:48;;;;;;;3.35;2.97;;;19.10;99.90;;;;;;5015419;28;20021;-83
2022/06/04 05:46:15;;;;;;;3.55;2.63;;;19.00;99.90;;;;;;5015243;28;20553;-83
2022/06/04 05:48:45;;;;;;;3.10;2.80;;;19.00;99.90;;;;;;5032998;28;20048;-84
2022/06/04 05:51:12;;;;;;;5.13;2.88;;;19.00;99.90;;;;;;5033017;28;20492;-87
2022/06/04 05:53:48;;;;;;;4.55;3.05;;;19.00;99.90;;;;;;5033278;28;20021;-85
2022/06/04 05:56:26;;;;;;;5.38;2.78;;;19.00;99.90;;;;;;5016029;28;20555;-86
2022/06/04 05:58:55;;;;;;;5.53;3.05;;;19.00;99.90;;;;;;5033059;28;20026;-83
2022/06/04 06:01:24;;;;;;;4.75;2.72;;;18.90;99.90;;;;;;5015160;28;20033;-83
2022/06/04 06:03:56;;;;;;;6.88;3.03;;;18.90;99.90;;;;;;5016103;28;20036;-83
2022/06/04 06:06:25;;;;;;;5.90;3.17;;;18.90;99.90;;;;;;5015527;28;20040;-84
2022/06/04 06:08:52;;;;;;;4.47;2.85;;;18.90;99.90;;;;;;5015399;28;20377;-84
2022/06/04 06:11:19;;;;;;;5.10;3.40;;;18.90;99.90;;;;;;5015281;28;20056;-84
2022/06/04 06:13:47;;;;;;;6.72;3.20;;;18.90;99.90;;;;;;5033177;28;20026;-84
2022/06/04 06:16:22;;;;;;;4.47;2.88;;;18.90;99.90;;;;;;5015204;28;20155;-84
2022/06/04 06:18:49;;;;;;;8.05;3.40;;;18.90;99.90;;;;;;5015456;28;20033;-84
2022/06/04 06:21:17;;;;;;;3.67;2.50;;;19.00;99.90;;;;;;5035141;28;20084;-84
2022/06/04 06:23:44;;;;;;;4.93;3.08;;;18.90;99.90;;;;;;5019207;28;20033;-84
2022/06/04 06:26:18;;;;;;;4.32;3.30;;;18.90;99.90;;;;;;5036633;28;20484;-84
2022/06/04 06:28:45;;;;;;;6.70;3.08;;;19.00;99.90;;;;;;5018821;28;20021;-83
2022/06/04 06:31:19;;;;;;;9.50;3.10;;;19.00;99.90;;;;;;5002616;28;20026;-83
2022/06/04 06:33:46;;;;;;;5.40;3.00;;;19.00;99.90;;;;;;5036773;28;20399;-83
2022/06/04 06:36:22;;;;;;;6.05;3.25;;;19.00;99.90;;;;;;5018593;28;20438;-83
2022/06/04 06:38:50;;;;;;;3.95;3.22;;;19.00;99.90;;;;;;5036667;28;20030;-83
2022/06/04 06:41:27;;;;;;;7.63;3.40;;;19.00;99.90;;;;;;5019111;28;20037;-83
2022/06/04 06:43:54;;;;;;;4.15;3.08;;;19.00;99.90;;;;;;5036282;28;20488;-83
2022/06/04 06:46:37;;;;;;;5.28;3.00;;;19.00;99.90;;;;;;5018444;28;20381;-83
2022/06/04 06:49:19;;;;;;;3.33;2.80;;;19.00;99.90;;;;;;5018460;28;20017;-83
2022/06/04 06:51:57;;;;;;;4.78;3.10;;;19.00;99.90;;;;;;5018632;28;20029;-84
2022/06/04 06:54:25;;;;;;;3.58;2.75;;;19.00;99.90;;;;;;5018361;28;20389;-83
2022/06/04 06:56:57;;;;;;;7.65;3.03;;;19.00;99.90;;;;;;5036256;28;20034;-83
2022/06/04 06:59:25;;;;;;;3.28;2.72;;;19.00;99.90;;;;;;5019087;28;20028;-83
2022/06/04 07:01:51;;;;;;;4.82;3.15;;;19.00;99.90;;;;;;5018301;28;20526;-84
2022/06/04 07:04:19;;;;;;;4.78;3.22;;;19.00;99.90;;;;;;5018359;28;20500;-84
2022/06/04 07:06:47;;;;;;;4.82;3.10;;;19.00;99.90;;;;;;5018046;28;20029;-83
2022/06/04 07:09:34;;;;;;;5.88;2.80;;;19.10;99.90;;;;;;5018541;28;20030;-83
2022/06/04 07:12:03;;;;;;;4.95;3.20;;;19.10;99.90;;;;;;5017561;28;20476;-83
2022/06/04 07:14:30;;;;;;;4.78;3.08;;;19.10;99.90;;;;;;5017808;28;20086;-83
2022/06/04 07:16:57;;;;;;;5.63;3.20;;;19.10;99.90;;;;;;5017866;28;20547;-83
2022/06/04 07:19:24;;;;;;;3.92;2.88;;;19.20;99.90;;;;;;5035611;28;20022;-83
2022/06/04 07:21:52;;;;;;;8.38;3.08;;;19.20;99.90;;;;;;5029224;28;20155;-84
2022/06/04 07:24:18;;;;;;;3.47;2.90;;;19.20;99.90;;;;;;5037780;28;20483;-83
2022/06/04 07:26:44;;;;;;;3.70;2.70;;;19.20;99.90;;;;;;5037423;28;20369;-83
2022/06/04 07:29:11;;;;;;;4.78;3.10;;;19.30;99.90;;;;;;5037696;28;20112;-83
2022/06/04 07:31:38;;;;;;;3.22;2.50;;;19.30;99.90;;;;;;5036912;28;20480;-84
2022/06/04 08:11:30;;;;;;;5.10;2.80;;;19.60;99.90;;;;;;5054725;28;20427;-83
2022/06/04 08:13:52;;;;;;;6.15;2.88;;;19.60;99.90;;;;;;5039320;28;20080;-83
2022/06/04 08:16:19;;;;;;;3.58;2.70;;;19.70;99.90;;;;;;5036309;28;20021;-83
2022/06/04 08:18:45;;;;;;;4.25;2.65;;;19.70;99.90;;;;;;5036326;28;20021;-83
2022/06/04 08:21:11;;;;;;;5.03;2.80;;;19.70;99.90;;;;;;5036154;28;20045;-83
2022/06/04 08:23:39;;;;;;;5.07;2.72;;;19.70;99.90;;;;;;5036081;28;20039;-83
2022/06/04 08:26:07;;;;;;;4.40;2.70;;;19.80;99.90;;;;;;5053947;28;20117;-83
2022/06/04 08:28:33;;;;;;;3.08;2.75;;;19.80;99.90;;;;;;5036201;28;20021;-83
2022/06/04 08:31:08;;;;;;;3.53;2.33;;;19.80;99.90;;;;;;5036124;28;20036;-83
2022/06/04 08:33:34;;;;;;;7.63;2.78;;;19.80;99.90;;;;;;5036092;28;20025;-83
2022/06/04 08:36:00;;;;;;;6.00;3.13;;;19.80;99.90;;;;;;5036531;28;20441;-83
2022/06/04 08:38:25;;;;;;;6.43;2.33;;;19.80;99.90;;;;;;5035837;28;20031;-84
2022/06/04 08:40:59;;;;;;;2.85;2.40;;;19.90;99.90;;;;;;5053553;28;20021;-83
2022/06/04 08:43:51;;;;;;;4.70;2.60;;;19.90;99.90;;;;;;5018763;28;20051;-83
2022/06/04 08:46:29;;;;;;;3.33;2.40;;;19.90;99.90;;;;;;5035828;28;20021;-85
2022/06/04 08:48:57;;;;;;;4.05;2.80;;;20.00;99.90;;;;;;5035651;28;20503;-83
2022/06/04 08:51:28;;;;;;;3.22;2.55;;;20.00;99.90;;;;;;5035683;28;20025;-83
2022/06/04 08:53:56;;;;;;;4.38;2.40;;;20.00;99.90;;;;;;5035718;28;20028;-83
2022/06/04 08:59:38;;;;;;;4.05;2.40;;;20.00;99.90;;;;;;5053947;28;20388;-82
2022/06/04 09:02:11;;;;;;;4.07;2.60;;;20.10;99.90;;;;;;5053680;28;20029;-83
2022/06/04 09:05:00;;;;;;;3.20;2.60;;;20.00;99.90;;;;;;5035455;28;20369;-83
2022/06/04 09:07:40;;;;;;;2.78;2.40;;;20.00;99.90;;;;;;5035731;28;20058;-83
2022/06/04 09:10:30;;;;;;;6.05;2.72;;;20.00;99.90;;;;;;5035865;28;20032;-82
2022/06/04 09:13:13;;;;;;;3.40;2.60;;;20.00;99.90;;;;;;5053261;28;20108;-83
2022/06/04 09:15:45;;;;;;;5.22;2.63;;;20.10;99.90;;;;;;5053120;28;20024;-82
2022/06/04 09:18:23;;;;;;;3.13;2.42;;;20.10;99.90;;;;;;5053009;28;20033;-83
2022/06/04 09:20:52;;;;;;;3.83;2.53;;;20.10;99.90;;;;;;5032125;28;20408;-83
2022/06/04 09:23:22;;;;;;;4.40;2.42;;;20.10;99.90;;;;;;5015554;28;20508;-83
2022/06/04 09:25:55;;;;;;;3.03;2.30;;;20.10;99.90;;;;;;5015535;28;20112;-83
2022/06/04 09:28:31;;;;;;;2.80;2.20;;;20.10;99.90;;;;;;5033236;28;20480;-83
2022/06/04 09:31:18;;;;;;;4.82;2.50;;;20.10;99.90;;;;;;5033503;28;20022;-83
2022/06/04 09:34:02;;;;;;;3.85;2.60;;;20.00;99.90;;;;;;5015526;28;20465;-82
2022/06/04 09:36:32;;;;;;;3.10;2.40;;;20.00;99.90;;;;;;5033506;28;20026;-83
2022/06/04 09:39:06;;;;;;;3.78;2.60;;;20.00;99.90;;;;;;5032889;28;20030;-83
2022/06/04 09:41:34;;;;;;;3.33;2.50;;;20.00;99.90;;;;;;5015458;28;20420;-83
2022/06/04 09:44:07;;;;;;;5.22;2.72;;;19.90;99.90;;;;;;5015367;28;20022;-83
2022/06/04 09:46:34;;;;;;;2.30;2.10;;;19.90;99.90;;;;;;5015417;28;20472;-83
2022/06/04 09:49:01;;;;;;;3.00;2.33;;;19.90;99.90;;;;;;5015403;28;20322;-83
2022/06/04 09:51:37;;;;;;;3.83;2.58;;;19.90;99.90;;;;;;5033367;28;20025;-83
2022/06/04 09:54:05;;;;;;;5.22;2.30;;;19.80;99.90;;;;;;5015789;28;20028;-83
2022/06/04 09:56:43;;;;;;;4.70;2.50;;;19.80;99.90;;;;;;5037120;28;20552;-83
2022/06/04 09:59:24;;;;;;;3.83;2.22;;;19.80;99.90;;;;;;5036999;28;20373;-83
2022/06/04 10:02:10;;;;;;;3.85;2.55;;;19.80;99.90;;;;;;5019219;28;20036;-83
2022/06/04 10:04:39;;;;;;;3.13;2.40;;;19.70;99.90;;;;;;5019276;28;20028;-83
2022/06/04 10:07:22;;;;;;;4.38;2.35;;;19.70;99.90;;;;;;5019194;28;20040;-83
2022/06/04 10:09:56;;;;;;;4.13;2.33;;;19.70;99.90;;;;;;5036853;28;20021;-83
2022/06/04 10:13:42;;;;;;;4.28;2.47;;;19.60;99.90;;;;;;5019073;28;20100;-83
2022/06/04 10:15:25;;;;;;;7.13;2.58;;;19.60;99.90;;;;;;5036567;28;20035;-83
2022/06/04 10:18:02;;;;;;;3.53;2.60;;;19.60;99.90;;;;;;5019027;28;20033;-83
2022/06/04 10:20:29;;;;;;;4.10;2.55;;;19.60;99.90;;;;;;5018963;28;20392;-83
2022/06/04 10:22:55;;;;;;;3.42;2.40;;;19.60;99.90;;;;;;5038341;28;20044;-83
2022/06/04 10:25:28;;;;;;;3.08;2.40;;;19.60;99.90;;;;;;5056484;28;20055;-83
2022/06/04 10:28:26;;;;;;;4.53;2.50;;;19.60;99.90;;;;;;5038437;28;20104;-83
2022/06/04 10:31:12;;;;;;;4.25;2.70;;;19.60;99.90;;;;;;4995409;28;20484;-83
2022/06/04 10:34:13;;;;;;;5.50;2.45;;;19.70;99.90;;;;;;5055756;28;20041;-84
2022/06/04 10:36:57;;;;;;;3.92;2.30;;;19.70;99.90;;;;;;5038327;28;20035;-83
2022/06/04 10:40:04;;;;;;;4.40;3.00;;;19.70;99.90;;;;;;5056005;28;20488;-83
2022/06/04 10:42:46;;;;;;;4.82;2.55;;;19.70;99.90;;;;;;5008175;28;20029;-83
2022/06/04 10:45:15;;;;;;;4.03;2.38;;;19.70;99.90;;;;;;5038298;28;20071;-83
2022/06/04 10:47:51;;;;;;;5.57;2.67;;;19.70;99.90;;;;;;5056181;28;20017;-83
2022/06/04 10:50:29;;;;;;;2.75;2.40;;;19.70;99.90;;;;;;5056385;28;20086;-83
2022/06/04 10:53:00;;;;;;;3.92;2.78;;;19.70;99.90;;;;;;5038076;28;20032;-83
2022/06/04 10:55:38;;;;;;;3.65;2.60;;;19.70;99.90;;;;;;5037970;28;20025;-83
2022/06/04 10:58:32;;;;;;;3.47;2.55;;;19.70;99.90;;;;;;5037981;28;20480;-83
2022/06/04 11:01:19;;;;;;;2.85;2.55;;;19.70;99.90;;;;;;5037901;28;20392;-83
2022/06/04 11:03:47;;;;;;;3.13;2.50;;;19.70;99.90;;;;;;5037918;28;20029;-83
2022/06/04 11:06:29;;;;;;;3.92;2.58;;;19.70;99.90;;;;;;5037000;28;20025;-83
2022/06/04 11:09:15;;;;;;;2.92;2.45;;;19.70;99.90;;;;;;5037726;28;20021;-83
2022/06/04 11:12:02;;;;;;;3.53;2.78;;;19.60;99.90;;;;;;5037776;28;20029;-83
2022/06/04 11:14:52;;;;;;;3.10;2.50;;;19.60;99.90;;;;;;5055333;28;20083;-83
2022/06/04 11:17:25;;;;;;;4.70;3.05;;;19.60;99.90;;;;;;5037654;28;20025;-83
2022/06/04 11:20:13;;;;;;;4.70;2.80;;;19.60;99.90;;;;;;5055854;28;20021;-84
2022/06/04 11:22:59;;;;;;;3.72;2.78;;;19.70;99.90;;;;;;5037322;28;20492;-83
2022/06/04 11:25:32;;;;;;;3.22;2.75;;;19.70;99.90;;;;;;5037481;28;20025;-83
2022/06/04 11:28:09;;;;;;;2.60;2.40;;;19.70;99.90;;;;;;5055200;28;20017;-83
2022/06/04 11:30:55;;;;;;;3.28;2.97;;;19.60;99.90;;;;;;5055354;28;20029;-84
2022/06/04 11:33:39;;;;;;;7.03;2.70;;;19.70;99.90;;;;;;5037303;28;20123;-84
2022/06/04 11:36:25;;;;;;;5.28;3.20;;;19.70;99.90;;;;;;5037272;28;20025;-83
2022/06/04 11:39:09;;;;;;;4.05;3.40;;;19.70;99.90;;;;;;5037245;28;20063;-84
2022/06/04 11:41:45;;;;;;;3.72;2.80;;;19.70;99.90;;;;;;5037059;28;20032;-84
2022/06/04 11:44:48;;;;;;;3.58;2.97;;;19.80;99.90;;;;;;5037159;28;20087;-83
2022/06/04 11:47:17;;;;;;;4.30;2.80;;;19.80;99.90;;;;;;5037058;28;20023;-84
2022/06/04 11:49:51;;;;;;;3.85;3.05;;;19.90;99.90;;;;;;5054378;28;20033;-84
2022/06/04 11:52:23;;;;;;;5.75;3.10;;;20.00;99.90;;;;;;5054794;28;20031;-83
2022/06/04 11:55:13;;;;;;;4.05;3.25;;;20.00;99.90;;;;;;5036928;28;20415;-84
2022/06/04 11:57:50;;;;;;;6.15;3.10;;;20.00;99.90;;;;;;5054741;28;20036;-84
2022/06/04 12:00:25;;;;;;;4.78;3.47;;;20.10;99.90;;;;;;5054600;28;20395;-84
2022/06/04 12:02:57;;;;;;;;;;;20.20;99.90;;;;;;5037510;28;20032;-84
2022/06/04 12:05:26;;;;;;;3.95;3.00;;;20.30;99.90;;;;;;5036763;28;20013;-84
2022/06/04 12:07:55;;;;;;;3.47;2.92;;;20.40;99.90;;;;;;5054540;28;20019;-84
2022/06/04 12:10:41;;;;;;;5.50;3.60;;;20.40;99.90;;;;;;5036553;28;20021;-84
2022/06/04 12:13:31;;;;;;;6.30;3.47;;;20.40;99.90;;;;;;5036599;28;20495;-84
2022/06/04 12:16:06;;;;;;;5.18;3.13;;;20.40;99.90;;;;;;5054432;28;20472;-83
2022/06/04 12:18:40;;;;;;;4.43;3.42;;;20.50;99.90;;;;;;5054440;28;20025;-84
2022/06/04 12:24:34;;;;;;;5.13;3.20;;;20.60;99.90;;;;;;5054803;28;19992;-83
2022/06/04 12:27:26;;;;;;;3.63;3.28;;;20.60;99.90;;;;;;5036800;28;20457;-84
2022/06/04 12:29:57;;;;;;;4.75;3.70;;;20.70;99.90;;;;;;5032795;28;20388;-84
2022/06/04 12:32:45;;;;;;;3.83;3.20;;;20.60;99.90;;;;;;5036115;28;20028;-84
2022/06/04 12:35:11;;;;;;;5.63;3.70;;;20.70;99.90;;;;;;5036090;28;20688;-83
2022/06/04 12:37:44;;;;;;;4.47;3.60;;;20.70;99.90;;;;;;5053866;28;20017;-83
2022/06/04 12:40:32;;;;;;;5.60;3.60;;;20.70;99.90;;;;;;5054182;28;20476;-83
2022/06/04 12:43:21;;;;;;;3.90;3.20;;;20.70;99.90;;;;;;5035891;28;20504;-84
2022/06/04 12:45:50;;;;;;;6.22;3.67;;;20.80;99.90;;;;;;5035881;28;20021;-83
2022/06/04 12:48:22;;;;;;;3.42;2.75;;;20.80;99.90;;;;;;5035785;28;20056;-84
2022/06/04 12:50:58;;;;;;;5.05;3.22;;;20.80;99.90;;;;;;5053698;28;20051;-83
2022/06/04 12:53:25;;;;;;;5.28;3.22;;;20.90;99.90;;;;;;5035747;28;20021;-84
2022/06/04 12:55:53;;;;;;;4.25;2.90;;;21.10;99.90;;;;;;5035684;28;20060;-84
2022/06/04 12:58:28;;;;;;;4.65;3.10;;;21.10;99.90;;;;;;5035691;28;20036;-84
2022/06/04 13:01:01;;;;;;;5.22;3.20;;;21.20;99.90;;;;;;5053467;28;20017;-84
2022/06/04 13:03:32;;;;;;;5.97;3.20;;;21.20;99.90;;;;;;5035537;28;20420;-84
2022/06/04 13:06:00;;;;;;;4.50;2.92;;;21.30;99.90;;;;;;5053753;28;20025;-84
2022/06/04 13:08:32;;;;;;;4.90;2.83;;;21.40;99.90;;;;;;5035566;28;20024;-84
2022/06/04 13:11:06;;;;;;;6.00;3.13;;;21.50;99.90;;;;;;5053348;28;20074;-84
2022/06/04 13:14:02;;;;;;;4.05;2.75;;;21.60;99.90;;;;;;5053424;28;20127;-84
2022/06/04 13:16:31;;;;;;;3.40;2.75;;;21.70;99.90;;;;;;5035399;28;20078;-84
2022/06/04 13:19:05;;;;;;;3.72;2.70;;;21.80;99.90;;;;;;5035624;28;20029;-83
2022/06/04 13:21:32;;;;;;;3.72;2.65;;;21.80;99.90;;;;;;5046214;28;20053;-84
2022/06/04 13:24:04;;;;;;;3.63;2.80;;;21.80;99.90;;;;;;5033628;28;20511;-84
2022/06/04 13:26:50;;;;;;;3.70;2.60;;;21.70;99.90;;;;;;5033292;28;20499;-83
2022/06/04 13:29:30;;;;;;;5.75;2.85;;;21.70;99.90;;;;;;5015138;28;20029;-83
2022/06/04 13:32:12;;;;;;;3.40;2.60;;;21.80;99.90;;;;;;5015513;28;20024;-84
2022/06/04 13:34:38;;;;;;;4.55;2.80;;;21.90;99.90;;;;;;5033775;28;20465;-84
2022/06/04 13:37:07;;;;;;;2.85;2.50;;;22.10;99.90;;;;;;5033217;28;20101;-84
2022/06/04 13:39:35;;;;;;;3.95;2.80;;;22.10;99.90;;;;;;5015456;28;20076;-84
2022/06/04 13:42:11;;;;;;;5.13;2.95;;;22.00;99.90;;;;;;5015416;28;20526;-84
2022/06/04 13:44:53;;;;;;;3.75;2.40;;;21.80;99.90;;;;;;5015361;28;20060;-84
2022/06/04 13:47:25;;;;;;;3.70;2.28;;;21.90;99.90;;;;;;5015682;28;20120;-84
2022/06/04 13:50:17;;;;;;;4.75;2.95;;;22.00;99.90;;;;;;5033013;28;20029;-84
2022/06/04 13:52:51;;;;;;;4.38;2.40;;;22.10;99.90;;;;;;5002643;28;20060;-84
2022/06/04 13:55:32;;;;;;;2.80;2.33;;;22.20;99.90;;;;;;5015331;28;20029;-84
2022/06/04 13:58:07;;;;;;;2.65;2.10;;;22.20;99.90;;;;;;5015303;28;20083;-84
2022/06/04 14:00:37;;;;;;;3.38;2.50;;;22.30;99.90;;;;;;5015245;28;20481;-84
2022/06/04 14:03:20;;;;;;;3.88;2.38;;;22.30;99.90;;;;;;4999212;28;20508;-84
2022/06/04 14:05:48;;;;;;;4.50;2.50;;;22.30;99.90;;;;;;5033235;28;20014;-84
2022/06/04 14:08:27;;;;;;;2.45;2.13;;;22.40;99.90;;;;;;5015196;28;20045;-84
2022/06/04 14:11:06;;;;;;;2.70;2.33;;;22.30;99.90;;;;;;5015244;28;20025;-84